Time;durP1;ratioP1;P1;durP2;ratioP2;P2;SDS_P1;SDS_P2;PMS_P1;PMS_P2;Temp;Humidity;BMP_temperature;BMP_pressure;BME280_temperature;BME280_humidity;BME280_pressure;Samples;Min_cycle;Max_cycle;Signal;HPM_P1;HPM_P2
2023/09/25 00:01:32;;;;;;;5.28;3.00;;;12.90;99.90;;;;;;4983007;28;20054;-56
2023/09/25 00:03:58;;;;;;;3.78;2.50;;;12.90;99.90;;;;;;4982672;28;20042;-57
2023/09/25 00:06:24;;;;;;;5.35;2.90;;;12.90;99.90;;;;;;4982658;28;20825;-57
2023/09/25 00:08:50;;;;;;;5.47;2.67;;;12.90;99.90;;;;;;4982930;28;20047;-55
2023/09/25 00:11:15;;;;;;;4.30;2.53;;;12.90;99.90;;;;;;4983196;28;20556;-54
2023/09/25 00:13:41;;;;;;;4.60;2.65;;;12.90;99.90;;;;;;4982495;28;20204;-55
2023/09/25 00:16:12;;;;;;;4.82;2.78;;;12.90;99.90;;;;;;4983403;28;20054;-54
2023/09/25 00:18:38;;;;;;;6.95;2.88;;;12.90;99.90;;;;;;4982718;28;20047;-54
2023/09/25 00:21:03;;;;;;;4.72;2.88;;;13.00;99.90;;;;;;4981862;28;20393;-57
2023/09/25 00:23:29;;;;;;;5.15;3.00;;;13.00;99.90;;;;;;4981940;28;20050;-56
2023/09/25 00:26:08;;;;;;;5.38;3.00;;;13.00;99.90;;;;;;5000132;28;20034;-57
2023/09/25 00:28:34;;;;;;;4.72;2.72;;;13.10;99.90;;;;;;5002299;28;20049;-56
2023/09/25 00:31:00;;;;;;;3.53;2.80;;;13.00;99.90;;;;;;5005944;28;20410;-56
2023/09/25 00:33:26;;;;;;;6.05;3.03;;;13.00;99.90;;;;;;5005510;28;20265;-57
2023/09/25 00:35:56;;;;;;;4.53;3.05;;;13.00;99.90;;;;;;5005713;28;20061;-53
2023/09/25 00:38:21;;;;;;;4.03;2.83;;;12.90;99.90;;;;;;5005118;28;20050;-57
2023/09/25 00:40:48;;;;;;;4.47;2.83;;;13.00;99.90;;;;;;5005751;28;20121;-57
2023/09/25 00:43:13;;;;;;;4.43;2.72;;;13.00;99.90;;;;;;5004777;28;20435;-57
2023/09/25 00:45:40;;;;;;;4.40;2.78;;;13.00;99.90;;;;;;5005011;28;20052;-57
2023/09/25 00:48:26;;;;;;;5.03;2.92;;;13.00;99.90;;;;;;5003575;28;20127;-56
2023/09/25 00:50:57;;;;;;;6.75;2.65;;;13.10;99.90;;;;;;5004851;28;20034;-57
2023/09/25 00:53:26;;;;;;;5.13;3.05;;;13.10;99.90;;;;;;5004458;28;20516;-57
2023/09/25 00:55:52;;;;;;;4.40;2.90;;;13.20;99.90;;;;;;5003010;28;20093;-57
2023/09/25 00:58:19;;;;;;;4.30;2.80;;;13.20;99.90;;;;;;4993433;28;20053;-57
2023/09/25 01:00:45;;;;;;;3.70;2.70;;;13.20;99.90;;;;;;4985386;28;20069;-57
2023/09/25 01:03:11;;;;;;;5.38;2.83;;;13.40;99.90;;;;;;4984766;28;20180;-57
2023/09/25 01:05:38;;;;;;;5.20;2.70;;;13.20;99.90;;;;;;4984773;28;20042;-56
2023/09/25 01:08:04;;;;;;;4.68;2.65;;;13.20;99.90;;;;;;5067823;23;20784;-56
2023/09/25 01:10:30;;;;;;;3.63;2.35;;;13.30;99.90;;;;;;4992940;28;20132;-57
2023/09/25 01:12:56;;;;;;;4.78;2.58;;;13.30;99.90;;;;;;5004087;28;20136;-55
2023/09/25 01:15:22;;;;;;;4.32;2.30;;;13.30;99.90;;;;;;5003512;28;20050;-55
2023/09/25 01:17:48;;;;;;;5.18;2.40;;;13.40;99.90;;;;;;5005224;28;20065;-56
2023/09/25 01:20:17;;;;;;;3.92;2.45;;;13.30;99.90;;;;;;5002333;28;20092;-54
2023/09/25 01:22:47;;;;;;;4.22;2.45;;;13.40;99.90;;;;;;4985963;28;20380;-57
2023/09/25 01:25:13;;;;;;;4.30;2.63;;;13.40;99.90;;;;;;4994834;28;20042;-57
2023/09/25 01:27:40;;;;;;;4.18;2.50;;;13.40;99.90;;;;;;5004660;28;20188;-53
2023/09/25 01:30:09;;;;;;;3.83;2.58;;;13.80;99.90;;;;;;5005092;28;20053;-57
2023/09/25 01:32:37;;;;;;;4.53;2.47;;;13.30;99.90;;;;;;4993188;28;20562;-57
2023/09/25 01:35:04;;;;;;;4.80;2.22;;;13.30;99.90;;;;;;4984298;28;20050;-56
2023/09/25 01:37:30;;;;;;;6.85;2.60;;;13.20;99.90;;;;;;4984121;28;20048;-57
2023/09/25 01:39:55;;;;;;;3.97;2.45;;;13.20;99.90;;;;;;4984526;28;20137;-54
2023/09/25 01:42:21;;;;;;;4.93;2.60;;;13.10;99.90;;;;;;4983930;28;20038;-53
2023/09/25 01:44:46;;;;;;;4.18;2.40;;;13.20;99.90;;;;;;4983461;28;20046;-56
2023/09/25 01:47:13;;;;;;;4.93;2.67;;;13.10;99.90;;;;;;4984048;28;20448;-56
2023/09/25 01:49:38;;;;;;;5.82;2.67;;;13.10;99.90;;;;;;4983994;28;20081;-57
2023/09/25 01:52:07;;;;;;;5.85;2.78;;;13.10;99.90;;;;;;4983663;28;20419;-56
2023/09/25 01:54:34;;;;;;;4.85;2.40;;;13.10;99.90;;;;;;4983000;28;20054;-57
2023/09/25 01:56:59;;;;;;;5.65;2.60;;;13.10;99.90;;;;;;4991304;28;20076;-56
2023/09/25 01:59:25;;;;;;;4.97;2.70;;;13.00;99.90;;;;;;4987819;28;20117;-56
2023/09/25 02:01:50;;;;;;;4.68;2.58;;;13.00;99.90;;;;;;4983353;28;20054;-55
2023/09/25 02:04:16;;;;;;;4.13;2.50;;;12.90;99.90;;;;;;4981640;28;20053;-54
2023/09/25 02:06:41;;;;;;;4.45;2.60;;;12.80;99.90;;;;;;4993694;28;20089;-55
2023/09/25 02:09:07;;;;;;;6.05;2.85;;;13.60;99.90;;;;;;5003283;28;20484;-57
2023/09/25 02:11:32;;;;;;;3.97;2.45;;;12.90;99.90;;;;;;5002397;28;20124;-55
2023/09/25 02:13:58;;;;;;;5.93;2.92;;;12.90;99.90;;;;;;5002148;28;20042;-55
2023/09/25 02:16:24;;;;;;;4.88;2.75;;;13.10;99.90;;;;;;5001742;28;20038;-56
2023/09/25 02:18:50;;;;;;;5.05;2.72;;;12.70;99.90;;;;;;5002630;28;20038;-54
2023/09/25 02:21:15;;;;;;;5.47;2.80;;;12.70;99.90;;;;;;5002010;28;20050;-56
2023/09/25 02:23:41;;;;;;;6.38;2.83;;;12.80;99.90;;;;;;5003007;28;20052;-55
2023/09/25 02:26:06;;;;;;;4.07;3.00;;;12.70;99.90;;;;;;5002724;28;20075;-56
2023/09/25 02:28:32;;;;;;;5.57;3.10;;;12.70;99.90;;;;;;5002755;28;20046;-57
2023/09/25 02:30:58;;;;;;;4.97;3.08;;;12.70;99.90;;;;;;5001451;28;20103;-56
2023/09/25 02:33:23;;;;;;;5.85;3.08;;;12.60;99.90;;;;;;5002704;28;20626;-56
2023/09/25 02:35:49;;;;;;;5.25;2.97;;;12.60;99.90;;;;;;5003045;28;20053;-54
2023/09/25 02:38:14;;;;;;;3.22;2.78;;;12.60;99.90;;;;;;5003166;28;20038;-56
2023/09/25 02:40:40;;;;;;;5.28;3.13;;;12.70;99.90;;;;;;5003265;28;20508;-55
2023/09/25 02:43:06;;;;;;;5.53;3.35;;;12.60;99.90;;;;;;5003271;28;20423;-54
2023/09/25 02:45:32;;;;;;;4.68;3.10;;;12.50;99.90;;;;;;5001616;28;20049;-57
2023/09/25 02:47:57;;;;;;;5.57;3.17;;;12.60;99.90;;;;;;5000489;28;20054;-54
2023/09/25 02:50:23;;;;;;;6.35;3.15;;;12.50;99.90;;;;;;5002051;28;20040;-54
2023/09/25 02:52:48;;;;;;;5.40;3.17;;;12.70;99.90;;;;;;5002967;28;20432;-54
2023/09/25 02:55:14;;;;;;;4.57;3.30;;;12.50;99.90;;;;;;5002227;28;20369;-54
2023/09/25 02:57:40;;;;;;;6.13;3.22;;;12.50;99.90;;;;;;4990189;28;20090;-57
2023/09/25 03:00:10;;;;;;;5.30;3.03;;;12.40;99.90;;;;;;5001700;28;20143;-57
2023/09/25 03:02:37;;;;;;;5.63;2.95;;;12.50;99.90;;;;;;5002584;28;20061;-54
2023/09/25 03:05:05;;;;;;;6.75;2.88;;;12.50;99.90;;;;;;5001982;28;20046;-56
2023/09/25 03:07:30;;;;;;;5.15;3.45;;;12.50;99.90;;;;;;5001769;28;20084;-57
2023/09/25 03:09:56;;;;;;;5.13;3.30;;;12.50;99.90;;;;;;5002873;28;20430;-57
2023/09/25 03:12:22;;;;;;;8.05;3.38;;;12.50;99.90;;;;;;4990044;28;20195;-57
2023/09/25 03:14:47;;;;;;;5.45;2.95;;;12.50;99.90;;;;;;4982531;28;20591;-54
2023/09/25 03:17:13;;;;;;;6.13;3.38;;;12.60;99.90;;;;;;4983437;28;20387;-55
2023/09/25 03:19:38;;;;;;;4.20;2.85;;;12.40;99.90;;;;;;4983887;28;20189;-55
2023/09/25 03:22:04;;;;;;;5.20;3.10;;;12.50;99.90;;;;;;4999495;28;20403;-57
2023/09/25 03:24:30;;;;;;;5.72;3.10;;;12.50;99.90;;;;;;4997712;28;20038;-57
2023/09/25 03:26:56;;;;;;;6.28;3.40;;;12.50;99.90;;;;;;4983087;28;20116;-56
2023/09/25 03:29:21;;;;;;;5.63;2.90;;;12.50;99.90;;;;;;4983219;28;20472;-55
2023/09/25 03:31:47;;;;;;;4.47;3.13;;;12.50;99.90;;;;;;4982926;28;20125;-53
2023/09/25 03:34:12;;;;;;;4.00;3.03;;;12.70;99.90;;;;;;4981180;28;20049;-56
2023/09/25 03:36:38;;;;;;;3.47;2.80;;;12.40;99.90;;;;;;4983953;28;20406;-57
2023/09/25 03:39:04;;;;;;;3.53;3.00;;;12.80;99.90;;;;;;4998830;28;20061;-56
2023/09/25 03:41:29;;;;;;;6.53;3.38;;;12.40;99.90;;;;;;4983502;28;20129;-57
2023/09/25 03:43:55;;;;;;;4.65;3.13;;;12.40;99.90;;;;;;4981842;28;20042;-55
2023/09/25 03:46:20;;;;;;;5.15;3.00;;;12.50;99.90;;;;;;4983957;28;20034;-56
2023/09/25 03:48:46;;;;;;;4.50;3.10;;;12.50;99.90;;;;;;4983076;28;20068;-55
2023/09/25 03:51:11;;;;;;;5.28;3.15;;;12.40;99.90;;;;;;4983240;28;20129;-56
2023/09/25 03:53:37;;;;;;;6.15;2.95;;;12.50;99.90;;;;;;4983091;28;20416;-57
2023/09/25 03:56:03;;;;;;;4.25;3.00;;;12.70;99.90;;;;;;4998804;28;20047;-56
2023/09/25 03:58:28;;;;;;;5.43;3.35;;;12.40;99.90;;;;;;4992128;28;20058;-57
2023/09/25 04:00:54;;;;;;;5.80;3.25;;;12.40;99.90;;;;;;5001764;28;20088;-54
2023/09/25 04:03:20;;;;;;;6.43;3.63;;;12.60;99.90;;;;;;5002246;28;20057;-55
2023/09/25 04:05:45;;;;;;;7.30;3.40;;;12.30;99.90;;;;;;5005974;28;20041;-57
2023/09/25 04:08:11;;;;;;;6.63;3.63;;;12.30;99.90;;;;;;5005980;28;20093;-56
2023/09/25 04:10:37;;;;;;;4.35;3.28;;;12.30;99.90;;;;;;5006650;28;20096;-57
2023/09/25 04:13:04;;;;;;;4.72;3.22;;;12.30;99.90;;;;;;5005452;28;20412;-56
2023/09/25 04:15:31;;;;;;;5.75;3.28;;;12.40;99.90;;;;;;5006182;28;20137;-54
2023/09/25 04:17:57;;;;;;;5.35;3.00;;;12.40;99.90;;;;;;5005451;28;20056;-57
2023/09/25 04:20:25;;;;;;;6.00;3.30;;;12.40;99.90;;;;;;5005537;28;20096;-55
2023/09/25 04:22:52;;;;;;;4.03;3.22;;;12.40;99.90;;;;;;5006603;28;20042;-57
2023/09/25 04:25:19;;;;;;;5.93;3.55;;;12.40;99.90;;;;;;5004300;28;20129;-56
2023/09/25 04:27:50;;;;;;;6.85;3.65;;;12.40;99.90;;;;;;5005919;28;20048;-56
2023/09/25 04:30:17;;;;;;;4.45;2.90;;;12.40;99.90;;;;;;5004893;28;20073;-54
2023/09/25 04:32:46;;;;;;;5.32;3.50;;;12.30;99.90;;;;;;5004965;28;20050;-55
2023/09/25 04:35:15;;;;;;;4.22;3.30;;;12.30;99.90;;;;;;5004219;28;20052;-53
2023/09/25 04:37:41;;;;;;;5.32;3.47;;;12.40;99.90;;;;;;5006043;28;20049;-55
2023/09/25 04:40:15;;;;;;;4.53;3.25;;;12.30;99.90;;;;;;5007048;28;20399;-54
2023/09/25 04:42:42;;;;;;;6.40;3.20;;;12.40;99.90;;;;;;5004030;28;20049;-54
2023/09/25 04:45:12;;;;;;;5.47;3.40;;;12.30;99.90;;;;;;5006174;28;20439;-57
2023/09/25 04:47:41;;;;;;;4.88;3.20;;;12.40;99.90;;;;;;5004855;28;20046;-55
2023/09/25 04:50:08;;;;;;;5.25;3.35;;;12.50;99.90;;;;;;5006225;28;20081;-57
2023/09/25 04:52:34;;;;;;;5.00;3.25;;;12.30;99.90;;;;;;5005213;28;20076;-57
2023/09/25 04:55:03;;;;;;;4.63;3.30;;;12.30;99.90;;;;;;5004306;28;20049;-57
2023/09/25 04:57:29;;;;;;;8.15;3.47;;;12.40;99.90;;;;;;4998818;28;20579;-56
2023/09/25 04:59:54;;;;;;;6.75;3.50;;;12.30;99.90;;;;;;4999713;28;20108;-55
2023/09/25 05:02:20;;;;;;;5.25;3.25;;;12.20;99.90;;;;;;4984773;28;20299;-55
2023/09/25 05:04:45;;;;;;;4.28;3.20;;;12.30;99.90;;;;;;4986542;28;20046;-54
2023/09/25 05:07:11;;;;;;;4.10;3.10;;;12.30;99.90;;;;;;4986059;28;20046;-53
2023/09/25 05:09:36;;;;;;;4.65;3.67;;;12.20;99.90;;;;;;4985000;28;20089;-57
2023/09/25 05:12:02;;;;;;;5.35;3.55;;;12.20;99.90;;;;;;4985506;28;20070;-57
2023/09/25 05:14:29;;;;;;;4.75;3.15;;;12.30;99.90;;;;;;4985243;28;20507;-56
2023/09/25 05:16:55;;;;;;;4.00;3.28;;;12.20;99.90;;;;;;4985198;28;20066;-56
2023/09/25 05:19:21;;;;;;;4.88;3.42;;;12.20;99.90;;;;;;4984244;28;20638;-55
2023/09/25 05:21:47;;;;;;;4.10;3.30;;;12.40;99.90;;;;;;4991828;28;20043;-54
2023/09/25 05:24:12;;;;;;;3.60;3.00;;;12.40;99.90;;;;;;5000929;28;20061;-56
2023/09/25 05:26:38;;;;;;;5.05;3.42;;;12.50;99.90;;;;;;5005132;28;20045;-55
2023/09/25 05:29:06;;;;;;;5.55;3.20;;;12.30;99.90;;;;;;5002881;28;20050;-57
2023/09/25 05:31:32;;;;;;;5.63;3.67;;;12.30;99.90;;;;;;5002336;28;20050;-57
2023/09/25 05:33:57;;;;;;;5.38;3.13;;;12.30;99.90;;;;;;5004182;28;20531;-57
2023/09/25 05:36:23;;;;;;;4.22;2.92;;;12.40;99.90;;;;;;5003480;28;20085;-56
2023/09/25 05:38:49;;;;;;;4.85;3.15;;;12.40;99.90;;;;;;5004079;28;20038;-56
2023/09/25 05:41:15;;;;;;;7.35;3.45;;;12.50;99.90;;;;;;5004322;28;20088;-54
2023/09/25 05:43:41;;;;;;;5.15;3.50;;;12.50;99.90;;;;;;5004590;28;20073;-56
2023/09/25 05:46:07;;;;;;;6.20;3.60;;;12.90;99.90;;;;;;5003792;28;20045;-57
2023/09/25 05:48:32;;;;;;;7.50;3.53;;;12.50;99.90;;;;;;5002762;28;20115;-57
2023/09/25 05:50:59;;;;;;;5.38;2.90;;;12.50;99.90;;;;;;5003995;28;20046;-57
2023/09/25 05:53:25;;;;;;;4.10;2.83;;;12.50;99.90;;;;;;5004432;28;20050;-57
2023/09/25 05:55:51;;;;;;;4.65;2.97;;;12.50;99.90;;;;;;5001352;28;20038;-56
2023/09/25 05:58:17;;;;;;;4.25;3.03;;;12.70;99.90;;;;;;4992259;28;20045;-54
2023/09/25 06:00:46;;;;;;;4.20;2.90;;;12.50;99.90;;;;;;4984562;28;20046;-54
2023/09/25 06:03:12;;;;;;;4.28;2.92;;;12.60;99.90;;;;;;4983535;28;20070;-56
2023/09/25 06:05:38;;;;;;;4.30;2.97;;;12.90;99.90;;;;;;4983410;28;20162;-54
2023/09/25 06:08:05;;;;;;;4.57;2.83;;;12.70;99.90;;;;;;4996008;28;20124;-56
2023/09/25 06:10:32;;;;;;;3.90;3.08;;;12.70;99.90;;;;;;5003387;28;20093;-55
2023/09/25 06:12:59;;;;;;;3.92;2.70;;;12.70;99.90;;;;;;5002586;28;20038;-56
2023/09/25 06:15:25;;;;;;;4.18;2.83;;;12.70;99.90;;;;;;5002719;28;20121;-54
2023/09/25 06:17:51;;;;;;;6.97;2.97;;;12.60;99.90;;;;;;5003005;28;20060;-56
2023/09/25 06:20:17;;;;;;;3.53;2.60;;;12.80;99.90;;;;;;5002329;28;20091;-52
2023/09/25 06:22:44;;;;;;;6.38;2.70;;;12.80;99.90;;;;;;5003959;28;20194;-56
2023/09/25 06:25:17;;;;;;;4.47;2.92;;;12.70;99.90;;;;;;5004035;28;20120;-55
2023/09/25 06:27:46;;;;;;;5.03;2.88;;;12.80;99.90;;;;;;5003002;28;20072;-56
2023/09/25 06:30:13;;;;;;;4.38;2.90;;;12.90;99.90;;;;;;5003525;28;20476;-57
2023/09/25 06:32:39;;;;;;;4.47;2.80;;;12.90;99.90;;;;;;5003747;28;20037;-56
2023/09/25 06:35:06;;;;;;;4.43;2.67;;;12.90;99.90;;;;;;5002505;28;20053;-56
2023/09/25 06:37:32;;;;;;;4.15;2.78;;;13.00;99.90;;;;;;4992154;28;20446;-53
2023/09/25 06:39:57;;;;;;;4.43;2.67;;;13.00;99.90;;;;;;4994316;28;20038;-54
2023/09/25 06:42:23;;;;;;;4.82;3.00;;;13.10;99.90;;;;;;4991839;28;20117;-52
2023/09/25 06:44:49;;;;;;;4.18;2.92;;;13.10;99.90;;;;;;4991644;28;20499;-54
2023/09/25 06:47:15;;;;;;;8.18;2.75;;;13.10;99.90;;;;;;4985360;28;20042;-56
2023/09/25 06:49:40;;;;;;;4.30;2.90;;;13.20;99.90;;;;;;4993733;28;20484;-54
2023/09/25 06:52:06;;;;;;;6.30;2.90;;;13.10;99.90;;;;;;4992022;28;20404;-57
2023/09/25 06:54:32;;;;;;;2.92;2.30;;;13.30;99.90;;;;;;4994822;28;20456;-55
2023/09/25 06:56:58;;;;;;;4.45;2.70;;;13.30;99.90;;;;;;4990232;28;20046;-55
2023/09/25 06:59:24;;;;;;;5.45;3.22;;;13.30;99.90;;;;;;5000867;28;20056;-54
2023/09/25 07:01:49;;;;;;;5.35;2.90;;;13.40;99.90;;;;;;5003149;28;20125;-56
2023/09/25 07:04:16;;;;;;;3.80;2.50;;;13.40;99.90;;;;;;5000230;28;20073;-57
2023/09/25 07:06:41;;;;;;;5.95;2.80;;;13.40;99.90;;;;;;5003090;28;20625;-57
2023/09/25 07:09:09;;;;;;;3.53;2.47;;;13.70;99.90;;;;;;5003087;28;20097;-57
2023/09/25 07:11:36;;;;;;;5.18;2.67;;;13.60;99.90;;;;;;5002620;28;20404;-57
2023/09/25 07:14:01;;;;;;;3.67;2.40;;;13.60;99.90;;;;;;5001358;28;20122;-56
2023/09/25 07:16:27;;;;;;;4.50;2.35;;;13.70;99.90;;;;;;5003252;28;20173;-56
2023/09/25 07:18:53;;;;;;;3.83;2.47;;;13.90;99.90;;;;;;5001526;28;20050;-57
2023/09/25 07:21:19;;;;;;;5.22;2.70;;;13.80;99.90;;;;;;5002147;28;20048;-55
2023/09/25 07:23:46;;;;;;;4.00;2.60;;;14.00;99.90;;;;;;5000735;28;20056;-56
2023/09/25 07:26:15;;;;;;;5.65;2.50;;;13.90;99.90;;;;;;5002042;28;20045;-57
2023/09/25 07:28:41;;;;;;;5.03;2.50;;;14.00;99.90;;;;;;4991541;28;20043;-57
2023/09/25 07:31:07;;;;;;;5.10;2.35;;;14.10;99.90;;;;;;4995779;28;20041;-56
2023/09/25 07:33:34;;;;;;;3.47;2.40;;;14.10;99.90;;;;;;4982130;28;20477;-57
2023/09/25 07:36:00;;;;;;;4.53;2.60;;;14.30;99.90;;;;;;4983670;28;20057;-56
2023/09/25 07:38:26;;;;;;;3.72;2.58;;;14.30;99.90;;;;;;4988606;28;20601;-55
2023/09/25 07:40:51;;;;;;;5.20;2.33;;;14.40;99.90;;;;;;4999225;28;20042;-55
2023/09/25 07:43:19;;;;;;;3.65;2.30;;;14.50;99.90;;;;;;5005824;28;20046;-54
2023/09/25 07:45:48;;;;;;;5.40;2.30;;;14.50;99.90;;;;;;5006209;28;20077;-54
2023/09/25 07:48:16;;;;;;;4.43;2.20;;;14.60;99.90;;;;;;5005091;28;20060;-54
2023/09/25 07:50:45;;;;;;;4.72;2.78;;;14.60;99.90;;;;;;5007240;28;20045;-55
2023/09/25 07:53:12;;;;;;;4.55;2.42;;;14.70;99.90;;;;;;5006618;28;20044;-55
2023/09/25 07:55:38;;;;;;;4.85;2.47;;;14.70;99.90;;;;;;5005511;28;20362;-55
2023/09/25 07:58:05;;;;;;;3.35;2.22;;;14.80;99.90;;;;;;4995918;28;20130;-58
2023/09/25 08:00:44;;;;;;;5.68;2.60;;;14.80;99.90;;;;;;4986600;28;20058;-57
2023/09/25 08:03:14;;;;;;;3.45;2.15;;;15.00;99.90;;;;;;4985406;28;20095;-56
2023/09/25 08:05:40;;;;;;;5.28;2.47;;;15.00;99.90;;;;;;4985992;28;20072;-55
2023/09/25 08:08:06;;;;;;;5.85;2.42;;;15.10;99.90;;;;;;4986211;28;20062;-57
2023/09/25 08:10:33;;;;;;;4.85;2.28;;;15.20;99.90;;;;;;5001226;28;20050;-55
2023/09/25 08:12:59;;;;;;;6.07;2.22;;;15.20;99.90;;;;;;4985019;28;20072;-55
2023/09/25 08:15:25;;;;;;;4.68;2.17;;;15.30;99.90;;;;;;4985445;28;20443;-55
2023/09/25 08:17:50;;;;;;;5.07;2.38;;;15.30;99.90;;;;;;4986252;28;20035;-54
2023/09/25 08:20:22;;;;;;;4.30;2.28;;;15.30;99.90;;;;;;4985919;28;20035;-56
2023/09/25 08:22:50;;;;;;;5.03;2.10;;;15.50;99.90;;;;;;4984726;28;20042;-54
2023/09/25 08:25:16;;;;;;;3.88;2.28;;;15.50;99.90;;;;;;4986118;28;20061;-55
2023/09/25 08:27:42;;;;;;;6.47;2.30;;;15.50;99.90;;;;;;4997489;28;20042;-55
2023/09/25 08:30:09;;;;;;;5.20;2.13;;;15.60;99.90;;;;;;4986522;28;20345;-55
2023/09/25 08:32:34;;;;;;;4.38;2.20;;;15.70;99.90;;;;;;4985284;28;20042;-57
2023/09/25 08:35:01;;;;;;;3.58;2.05;;;15.70;99.90;;;;;;4985069;28;20097;-57
2023/09/25 08:37:27;;;;;;;4.13;2.40;;;15.90;99.90;;;;;;4986277;28;20221;-54
2023/09/25 08:39:54;;;;;;;5.25;2.20;;;15.90;99.90;;;;;;4984624;28;20450;-54
2023/09/25 08:42:24;;;;;;;3.22;2.22;;;16.00;99.90;;;;;;4986750;28;20108;-57
2023/09/25 08:44:51;;;;;;;4.78;2.15;;;16.20;99.90;;;;;;4985288;28;20034;-54
2023/09/25 08:47:22;;;;;;;3.15;1.92;;;16.20;99.90;;;;;;4984340;28;20046;-57
2023/09/25 08:49:51;;;;;;;5.00;2.30;;;16.30;99.90;;;;;;4985608;28;20042;-56
2023/09/25 08:52:17;;;;;;;4.25;1.90;;;16.50;99.90;;;;;;4984450;28;20594;-55
2023/09/25 08:54:43;;;;;;;3.25;1.90;;;16.50;99.90;;;;;;4985648;28;20050;-56
2023/09/25 08:57:10;;;;;;;4.47;2.33;;;16.50;99.90;;;;;;4995107;28;20041;-54
2023/09/25 08:59:37;;;;;;;3.80;2.00;;;16.60;99.90;;;;;;4988471;28;20050;-49
2023/09/25 09:02:06;;;;;;;5.53;2.30;;;16.70;99.90;;;;;;4985432;28;20404;-59
2023/09/25 09:04:32;;;;;;;5.35;2.25;;;16.90;99.90;;;;;;4985112;28;20090;-55
2023/09/25 09:06:58;;;;;;;4.60;1.95;;;17.10;99.90;;;;;;4985581;28;20082;-57
2023/09/25 09:09:24;;;;;;;4.45;2.10;;;17.40;99.90;;;;;;4985087;28;20057;-56
2023/09/25 09:11:51;;;;;;;3.10;2.00;;;17.70;99.60;;;;;;4984566;28;20047;-57
2023/09/25 09:14:39;;;;;;;4.28;1.83;;;17.90;99.40;;;;;;4985796;28;20055;-57
2023/09/25 09:17:06;;;;;;;5.07;2.10;;;18.00;98.90;;;;;;4984863;28;20050;-55
2023/09/25 09:19:57;;;;;;;3.30;1.92;;;18.30;98.30;;;;;;4984587;28;20081;-55
2023/09/25 09:22:22;;;;;;;4.20;1.95;;;18.60;97.90;;;;;;4985364;28;20065;-56
2023/09/25 09:24:56;;;;;;;3.80;2.35;;;18.70;97.50;;;;;;4984442;28;20035;-54
2023/09/25 09:27:25;;;;;;;4.55;1.98;;;18.70;97.60;;;;;;4985643;28;20082;-55
2023/09/25 09:29:52;;;;;;;6.75;2.00;;;18.60;97.50;;;;;;4984212;28;20057;-54
2023/09/25 09:32:18;;;;;;;3.53;1.90;;;18.60;97.60;;;;;;4983687;28;20505;-57
2023/09/25 09:34:45;;;;;;;3.25;1.75;;;18.60;97.50;;;;;;4982926;28;20058;-54
2023/09/25 09:37:13;;;;;;;3.40;2.03;;;18.50;97.00;;;;;;4991744;28;20046;-55
2023/09/25 09:39:40;;;;;;;3.83;2.00;;;18.30;97.10;;;;;;4984624;28;20084;-57
2023/09/25 09:42:08;;;;;;;3.17;2.00;;;18.20;97.50;;;;;;4985396;28;20125;-56
2023/09/25 09:44:35;;;;;;;4.18;1.92;;;18.10;97.40;;;;;;4995337;28;20049;-56
2023/09/25 09:47:03;;;;;;;4.57;2.42;;;18.00;98.00;;;;;;4985519;28;20645;-58
2023/09/25 09:49:31;;;;;;;5.60;2.05;;;17.80;98.00;;;;;;4984675;28;20094;-57
2023/09/25 09:52:00;;;;;;;4.38;2.15;;;17.80;98.30;;;;;;4983476;28;20042;-57
2023/09/25 09:54:29;;;;;;;4.10;2.00;;;17.70;98.30;;;;;;4985256;28;20047;-55
2023/09/25 09:56:59;;;;;;;4.25;1.77;;;17.70;98.50;;;;;;4990059;28;20046;-56
2023/09/25 09:59:25;;;;;;;3.20;2.00;;;17.70;98.70;;;;;;5000348;28;20085;-56
2023/09/25 10:01:51;;;;;;;4.45;2.10;;;17.80;98.70;;;;;;4982963;28;20472;-56
2023/09/25 10:04:17;;;;;;;3.40;2.08;;;17.90;98.80;;;;;;4984074;28;20088;-58
2023/09/25 10:06:53;;;;;;;4.32;2.05;;;17.90;98.50;;;;;;4978930;28;20997;-56
2023/09/25 10:09:19;;;;;;;4.85;1.90;;;18.10;98.40;;;;;;4998289;28;20049;-57
2023/09/25 10:11:50;;;;;;;6.15;1.90;;;18.30;98.10;;;;;;5003584;28;20046;-56
2023/09/25 10:14:23;;;;;;;5.13;2.10;;;18.50;98.20;;;;;;4995105;28;20039;-55
2023/09/25 10:17:01;;;;;;;5.30;1.80;;;18.60;98.20;;;;;;5003000;28;20443;-57
2023/09/25 10:19:53;;;;;;;4.60;2.00;;;18.80;97.80;;;;;;5002848;28;20038;-56
2023/09/25 10:22:37;;;;;;;4.95;2.10;;;18.90;97.60;;;;;;5001450;28;20078;-56
2023/09/25 10:25:14;;;;;;;3.25;1.80;;;18.80;97.80;;;;;;5100507;27;20920;-55
2023/09/25 10:27:47;;;;;;;5.07;2.20;;;18.90;97.80;;;;;;5080581;28;20474;-56
2023/09/25 10:30:16;;;;;;;3.88;1.88;;;19.10;97.90;;;;;;5079926;28;20048;-56
2023/09/25 10:32:52;;;;;;;3.80;1.77;;;19.30;97.90;;;;;;5079852;28;20046;-57
2023/09/25 10:35:42;;;;;;;3.45;1.80;;;19.40;97.20;;;;;;5078983;28;20480;-56
2023/09/25 10:38:19;;;;;;;4.53;1.85;;;19.60;96.90;;;;;;5080866;28;20087;-55
2023/09/25 10:40:48;;;;;;;4.03;1.60;;;19.60;96.80;;;;;;5079203;28;20076;-56
2023/09/25 10:43:18;;;;;;;5.53;2.00;;;19.70;96.60;;;;;;5082838;28;20048;-54
2023/09/25 10:45:44;;;;;;;3.40;1.85;;;19.70;96.40;;;;;;5086569;28;20132;-56
2023/09/25 10:48:10;;;;;;;6.55;1.85;;;19.60;96.20;;;;;;5097427;28;20048;-55
2023/09/25 10:50:37;;;;;;;3.85;1.70;;;19.70;96.40;;;;;;5083498;28;20040;-56
2023/09/25 10:53:07;;;;;;;4.57;2.10;;;19.70;96.40;;;;;;5079533;28;20409;-55
2023/09/25 10:55:34;;;;;;;3.65;1.70;;;19.90;96.00;;;;;;5080982;28;20054;-56
2023/09/25 10:58:05;;;;;;;4.80;2.20;;;19.80;95.50;;;;;;5084407;28;20071;-56
2023/09/25 11:00:34;;;;;;;4.78;1.80;;;19.70;95.80;;;;;;5078691;28;20068;-57
2023/09/25 11:03:04;;;;;;;4.53;1.80;;;19.80;95.90;;;;;;5080387;28;20044;-57
2023/09/25 11:05:31;;;;;;;5.10;2.20;;;19.80;95.80;;;;;;5078141;28;20051;-55
2023/09/25 11:07:57;;;;;;;3.35;1.70;;;19.90;95.90;;;;;;5088362;28;20070;-56
2023/09/25 11:10:30;;;;;;;4.65;1.98;;;20.00;96.20;;;;;;5086810;28;20128;-55
2023/09/25 11:12:57;;;;;;;4.60;1.92;;;20.20;96.60;;;;;;5077802;28;20064;-57
2023/09/25 11:15:27;;;;;;;2.80;1.75;;;20.30;96.20;;;;;;5098696;28;20126;-56
2023/09/25 11:17:52;;;;;;;3.13;1.80;;;20.30;95.50;;;;;;5098462;28;20086;-56
2023/09/25 11:20:18;;;;;;;3.80;1.75;;;20.30;95.50;;;;;;5090408;28;20071;-57
2023/09/25 11:22:46;;;;;;;2.78;1.60;;;20.30;95.30;;;;;;5076596;28;20044;-55
2023/09/25 11:25:14;;;;;;;4.70;1.95;;;20.30;95.50;;;;;;5079392;28;20394;-56
2023/09/25 11:27:53;;;;;;;5.82;1.90;;;20.30;95.60;;;;;;5077726;28;20490;-54
2023/09/25 11:30:20;;;;;;;3.60;1.90;;;20.40;96.00;;;;;;5096481;28;20032;-55
2023/09/25 11:32:47;;;;;;;4.25;1.98;;;20.60;95.30;;;;;;5087264;28;20051;-57
2023/09/25 11:35:17;;;;;;;3.35;1.52;;;20.50;95.50;;;;;;5072567;28;20040;-54
2023/09/25 11:38:00;;;;;;;5.45;2.08;;;20.60;95.30;;;;;;5074706;28;20048;-52
2023/09/25 11:40:27;;;;;;;4.03;1.90;;;20.50;95.10;;;;;;5077741;28;20048;-58
2023/09/25 11:42:53;;;;;;;3.53;1.80;;;20.50;95.30;;;;;;5064519;28;20407;-57
2023/09/25 11:45:19;;;;;;;5.20;2.15;;;20.50;95.10;;;;;;5077546;28;20086;-56
2023/09/25 11:47:45;;;;;;;3.70;2.00;;;20.50;95.20;;;;;;5069195;28;20075;-56
2023/09/25 11:50:13;;;;;;;3.20;1.70;;;20.60;95.60;;;;;;5065827;28;20036;-55
2023/09/25 11:52:43;;;;;;;2.92;1.67;;;20.80;95.70;;;;;;5070200;28;20052;-57
2023/09/25 11:55:12;;;;;;;3.65;1.70;;;20.80;95.20;;;;;;5085493;28;20093;-54
2023/09/25 11:57:41;;;;;;;6.07;1.70;;;20.80;95.30;;;;;;5070302;28;20052;-53
2023/09/25 12:00:16;;;;;;;7.78;2.00;;;20.80;95.10;;;;;;5078972;28;20431;-54
2023/09/25 12:02:45;;;;;;;3.67;1.42;;;20.80;95.00;;;;;;5073950;28;20394;-54
2023/09/25 12:05:11;;;;;;;4.78;1.85;;;20.90;95.60;;;;;;5065576;28;20059;-56
2023/09/25 12:07:37;;;;;;;3.83;1.60;;;21.10;94.70;;;;;;5063987;28;20466;-56
2023/09/25 12:10:05;;;;;;;3.83;1.65;;;21.00;93.90;;;;;;5063960;28;20551;-56
2023/09/25 12:12:31;;;;;;;3.63;1.70;;;21.00;94.30;;;;;;5064471;28;20044;-56
2023/09/25 12:14:58;;;;;;;3.95;1.58;;;21.00;93.50;;;;;;5064749;28;20037;-55
2023/09/25 12:17:25;;;;;;;4.00;1.95;;;20.90;93.60;;;;;;5063323;28;20387;-57
2023/09/25 12:19:52;;;;;;;3.00;1.50;;;20.90;94.30;;;;;;5064492;28;20051;-55
2023/09/25 12:22:17;;;;;;;2.80;1.60;;;21.00;94.10;;;;;;5064384;28;20067;-56
2023/09/25 12:24:44;;;;;;;3.40;1.90;;;21.00;94.40;;;;;;5063419;28;20048;-55
2023/09/25 12:27:10;;;;;;;4.78;1.70;;;21.10;93.30;;;;;;5063477;28;20055;-54
2023/09/25 12:29:35;;;;;;;2.65;1.55;;;21.00;93.40;;;;;;5062013;28;20040;-56
2023/09/25 12:32:01;;;;;;;6.00;1.70;;;20.90;93.70;;;;;;5063343;28;20545;-53
2023/09/25 12:34:27;;;;;;;5.95;1.70;;;20.90;93.60;;;;;;5063039;28;20068;-56
2023/09/25 12:36:53;;;;;;;5.00;1.73;;;21.00;93.80;;;;;;5064088;28;20045;-58
2023/09/25 12:39:20;;;;;;;4.80;2.45;;;21.00;94.00;;;;;;5065084;28;20044;-50
2023/09/25 12:41:46;;;;;;;4.95;1.70;;;21.10;95.00;;;;;;5071447;28;20128;-56
2023/09/25 12:44:11;;;;;;;4.82;2.00;;;21.20;94.80;;;;;;5068779;28;20131;-56
2023/09/25 12:46:37;;;;;;;4.07;2.03;;;21.30;94.90;;;;;;5068523;28;20041;-55
2023/09/25 12:49:04;;;;;;;5.50;1.75;;;21.30;94.70;;;;;;5071847;28;20163;-57